createdAt,value
2022-11-28T00:01:44.541Z,90.13
2022-11-28T00:04:13.926Z,89.45
2022-11-28T00:06:46.767Z,89.31
2022-11-28T00:09:16.339Z,89.16
2022-11-28T00:11:46.135Z,89.35
2022-11-28T00:14:15.880Z,90.02
2022-11-28T00:16:44.632Z,90.65
2022-11-28T00:19:13.948Z,91.50
2022-11-28T00:21:42.879Z,92.19
2022-11-28T00:24:11.617Z,91.16
2022-11-28T00:26:42.291Z,90.50
2022-11-28T00:29:11.608Z,90.39
2022-11-28T00:31:43.944Z,90.10
2022-11-28T00:34:17.267Z,89.95
2022-11-28T00:36:47.895Z,89.56
2022-11-28T00:39:18.125Z,89.75
2022-11-28T00:41:46.830Z,89.68
2022-11-28T00:44:15.472Z,89.52
2022-11-28T00:46:44.269Z,89.32
2022-11-28T00:49:12.883Z,89.43
2022-11-28T00:51:41.301Z,89.30
2022-11-28T00:54:09.873Z,88.63
2022-11-28T00:56:41.008Z,89.01
2022-11-28T00:59:09.714Z,89.02
2022-11-28T01:01:44.533Z,88.73
2022-11-28T01:04:16.039Z,88.63
2022-11-28T01:06:48.250Z,89.02
2022-11-28T01:09:23.494Z,88.93
2022-11-28T01:11:54.497Z,89.09
2022-11-28T01:14:25.196Z,88.83
2022-11-28T01:16:53.726Z,89.12
2022-11-28T01:19:22.385Z,89.37
2022-11-28T01:21:51.113Z,89.37
2022-11-28T01:24:20.002Z,89.32
2022-11-28T01:26:48.482Z,89.24
2022-11-28T01:29:17.441Z,89.22
2022-11-28T01:31:46.012Z,88.84
2022-11-28T01:34:14.495Z,89.15
2022-11-28T01:36:43.071Z,89.07
2022-11-28T01:39:12.301Z,88.96
2022-11-28T01:41:40.892Z,88.68
2022-11-28T01:44:16.780Z,87.83
2022-11-28T01:46:45.533Z,87.76
2022-11-28T01:49:20.591Z,88.27
2022-11-28T01:52:09.416Z,87.59
2022-11-28T01:54:40.181Z,87.66
2022-11-28T01:57:13.023Z,86.95
2022-11-28T01:59:49.544Z,87.37
2022-11-28T02:02:28.105Z,87.57
2022-11-28T02:04:56.670Z,87.63
2022-11-28T02:07:25.343Z,87.36
2022-11-28T02:09:53.739Z,87.42
2022-11-28T02:13:12.042Z,86.92
2022-11-28T02:16:13.520Z,86.42
2022-11-28T02:19:28.727Z,86.81
2022-11-28T02:22:21.569Z,87.69
2022-11-28T02:25:08.772Z,87.38
2022-11-28T02:28:37.365Z,88.24
2022-11-28T02:31:24.646Z,88.32
2022-11-28T02:34:30.801Z,87.70
2022-11-28T02:37:10.232Z,87.91
2022-11-28T02:39:57.956Z,87.97
2022-11-28T02:43:10.589Z,88.97
2022-11-28T02:45:55.260Z,88.33
2022-11-28T02:48:39.288Z,88.73
2022-11-28T02:51:49.400Z,87.66
2022-11-28T02:54:19.775Z,88.20
2022-11-28T02:56:54.162Z,87.83
2022-11-28T02:59:40.122Z,87.34
2022-11-28T03:02:29.675Z,87.51
2022-11-28T03:05:15.211Z,87.59
2022-11-28T03:08:01.327Z,87.61
2022-11-28T03:11:05.329Z,87.85
2022-11-28T03:13:54.732Z,87.86
2022-11-28T03:16:32.696Z,87.18
2022-11-28T03:19:19.087Z,87.22
2022-11-28T03:21:53.633Z,87.21
2022-11-28T03:24:32.828Z,87.05
2022-11-28T03:27:33.254Z,87.16
2022-11-28T03:30:35.354Z,87.19
2022-11-28T03:33:05.283Z,87.28
2022-11-28T03:35:39.863Z,87.79
2022-11-28T03:38:19.024Z,87.40
2022-11-28T03:40:51.555Z,87.21
2022-11-28T03:43:26.352Z,86.83
2022-11-28T03:46:00.224Z,87.21
2022-11-28T03:48:45.509Z,87.00
2022-11-28T03:51:17.485Z,87.44
2022-11-28T03:54:26.875Z,86.49
2022-11-28T03:57:12.760Z,86.98
2022-11-28T03:59:49.281Z,86.12
2022-11-28T04:02:35.932Z,86.04
2022-11-28T04:05:12.967Z,85.66
2022-11-28T04:08:00.658Z,86.14
2022-11-28T04:10:47.235Z,85.95
2022-11-28T04:13:54.563Z,86.09
2022-11-28T04:16:56.444Z,85.91
2022-11-28T04:19:24.871Z,85.70
2022-11-28T04:21:58.337Z,85.58
2022-11-28T04:24:33.314Z,86.17
2022-11-28T04:27:14.844Z,85.85
2022-11-28T04:29:52.659Z,86.77
2022-11-28T04:32:22.683Z,86.70
2022-11-28T04:34:58.227Z,86.27
2022-11-28T04:37:29.365Z,84.87
2022-11-28T04:39:58.139Z,84.53
2022-11-28T04:42:38.903Z,84.47
2022-11-28T04:45:10.253Z,84.75
2022-11-28T04:47:38.840Z,83.81
2022-11-28T04:50:08.280Z,83.84
2022-11-28T04:52:48.631Z,83.36
2022-11-28T04:55:28.348Z,83.13
2022-11-28T04:58:17.836Z,83.42
2022-11-28T05:00:46.799Z,83.74
2022-11-28T05:03:15.329Z,82.89
2022-11-28T05:05:47.676Z,82.80
2022-11-28T05:08:16.278Z,82.74
2022-11-28T05:10:45.006Z,82.58
2022-11-28T05:13:13.486Z,83.23
2022-11-28T05:15:42.016Z,82.76
2022-11-28T05:18:10.447Z,83.29
2022-11-28T05:20:39.379Z,83.21
2022-11-28T05:23:08.426Z,82.71
2022-11-28T05:25:38.821Z,82.88
2022-11-28T05:28:07.206Z,83.04
2022-11-28T05:30:35.676Z,85.07
2022-11-28T05:33:04.451Z,86.08
2022-11-28T05:35:32.955Z,85.38
2022-11-28T05:38:01.405Z,85.33
2022-11-28T05:40:30.067Z,87.12
2022-11-28T05:42:58.463Z,87.49
2022-11-28T05:45:27.514Z,87.02
2022-11-28T05:47:55.972Z,86.18
2022-11-28T05:50:24.548Z,85.54
2022-11-28T05:52:53.021Z,85.24
2022-11-28T05:55:21.479Z,84.85
2022-11-28T05:57:49.986Z,86.54
2022-11-28T06:00:18.985Z,86.78
2022-11-28T06:02:47.440Z,85.94
2022-11-28T06:05:41.124Z,85.35
2022-11-28T06:08:04.430Z,84.61
2022-11-28T06:10:33.135Z,83.56
2022-11-28T06:13:02.888Z,82.16
2022-11-28T06:15:37.801Z,81.69
2022-11-28T06:18:06.790Z,81.38
2022-11-28T06:20:36.722Z,80.59
2022-11-28T06:23:05.141Z,80.12
2022-11-28T06:25:33.577Z,79.72
2022-11-28T06:28:02.094Z,79.97
2022-11-28T06:30:30.616Z,79.20
2022-11-28T06:32:59.001Z,79.55
2022-11-28T06:35:27.641Z,80.11
2022-11-28T06:37:56.056Z,80.29
2022-11-28T06:40:24.536Z,81.00
2022-11-28T06:42:52.995Z,81.37
2022-11-28T06:45:21.624Z,81.69
2022-11-28T06:47:50.095Z,82.44
2022-11-28T06:50:18.578Z,82.30
2022-11-28T06:52:47.344Z,81.64
2022-11-28T06:55:15.679Z,82.52
2022-11-28T06:57:44.351Z,82.01
2022-11-28T07:00:13.698Z,80.17
2022-11-28T07:02:42.368Z,79.21
2022-11-28T07:05:11.064Z,77.76
2022-11-28T07:07:53.284Z,77.49
2022-11-28T07:10:23.399Z,77.42
2022-11-28T07:12:57.479Z,77.26
2022-11-28T07:15:28.536Z,77.19
2022-11-28T07:17:57.064Z,76.66
2022-11-28T07:20:25.586Z,77.33
2022-11-28T07:22:54.038Z,77.14
2022-11-28T07:25:22.459Z,77.54
2022-11-28T07:27:50.907Z,77.15
2022-11-28T07:30:20.091Z,76.48
2022-11-28T07:32:48.717Z,76.46
2022-11-28T07:35:17.305Z,75.94
2022-11-28T07:37:45.751Z,75.97
2022-11-28T07:40:14.617Z,76.06
2022-11-28T07:42:43.423Z,75.22
2022-11-28T07:45:12.410Z,75.88
2022-11-28T07:47:41.002Z,75.52
2022-11-28T07:50:10.079Z,75.33
2022-11-28T07:52:38.537Z,75.85
2022-11-28T07:55:07.138Z,75.96
2022-11-28T07:57:35.579Z,76.28
2022-11-28T08:00:04.758Z,75.80
2022-11-28T08:02:33.491Z,76.48
2022-11-28T08:05:02.040Z,76.69
2022-11-28T08:07:30.646Z,76.56
2022-11-28T08:09:59.317Z,76.83
2022-11-28T08:12:27.900Z,77.56
2022-11-28T08:14:56.326Z,77.94
2022-11-28T08:17:25.006Z,77.74
2022-11-28T08:19:53.516Z,77.88
2022-11-28T08:22:22.729Z,78.31
2022-11-28T08:24:51.150Z,77.93
2022-11-28T08:27:19.861Z,78.46
2022-11-28T08:29:52.187Z,78.43
2022-11-28T08:32:22.053Z,78.42
2022-11-28T08:34:50.523Z,78.32
2022-11-28T08:37:19.083Z,78.70
2022-11-28T08:39:47.517Z,78.19
2022-11-28T08:42:15.938Z,79.00
2022-11-28T08:44:44.333Z,78.99
2022-11-28T08:47:12.865Z,78.52
2022-11-28T08:49:41.480Z,78.60
2022-11-28T08:52:10.108Z,78.94
2022-11-28T08:54:38.610Z,78.74
2022-11-28T08:57:07.504Z,78.17
2022-11-28T08:59:35.956Z,78.12
2022-11-28T09:02:04.476Z,78.04
2022-11-28T09:04:32.913Z,77.87
2022-11-28T09:07:01.451Z,78.38
2022-11-28T09:09:32.891Z,78.93
2022-11-28T09:12:01.505Z,78.31
2022-11-28T09:14:29.950Z,78.25
2022-11-28T09:16:58.497Z,78.08
2022-11-28T09:19:27.086Z,78.10
2022-11-28T09:21:57.894Z,78.02
2022-11-28T09:24:26.608Z,77.42
2022-11-28T09:26:55.064Z,77.82
2022-11-28T09:29:23.505Z,77.60
2022-11-28T09:31:51.941Z,77.40
2022-11-28T09:34:20.353Z,77.16
2022-11-28T09:36:50.049Z,77.55
2022-11-28T09:39:18.527Z,77.28
2022-11-28T09:42:07.717Z,77.27
2022-11-28T09:44:59.587Z,77.98
2022-11-28T09:47:32.104Z,77.78
2022-11-28T09:50:20.855Z,78.07
2022-11-28T09:53:28.320Z,77.48
2022-11-28T09:56:01.677Z,77.29
2022-11-28T09:58:51.030Z,77.11
2022-11-28T10:01:53.179Z,76.53
2022-11-28T10:04:38.349Z,76.55
2022-11-28T10:07:15.428Z,76.82
2022-11-28T10:10:15.657Z,77.34
2022-11-28T10:13:01.739Z,77.67
2022-11-28T10:16:10.746Z,77.72
2022-11-28T10:18:52.282Z,76.41
2022-11-28T10:21:26.343Z,76.66
2022-11-28T10:24:13.395Z,77.11
2022-11-28T10:27:08.315Z,76.71
2022-11-28T10:30:09.546Z,74.82
2022-11-28T10:32:45.171Z,74.38
2022-11-28T10:35:28.837Z,74.84
2022-11-28T10:37:57.393Z,74.42
2022-11-28T10:40:46.488Z,74.99
2022-11-28T10:43:35.931Z,75.08
2022-11-28T10:46:32.066Z,75.45
2022-11-28T10:49:34.235Z,75.64
2022-11-28T10:52:19.423Z,76.50
2022-11-28T10:54:58.882Z,76.57
2022-11-28T10:57:37.428Z,76.20
2022-11-28T11:00:18.413Z,75.68
2022-11-28T11:02:54.892Z,75.71
2022-11-28T11:05:28.853Z,76.03
2022-11-28T11:08:30.297Z,75.46
2022-11-28T11:11:27.666Z,75.37
2022-11-28T11:14:07.000Z,75.87
2022-11-28T11:16:55.501Z,75.18
2022-11-28T11:19:41.729Z,74.75
2022-11-28T11:22:28.459Z,74.55
2022-11-28T11:25:20.221Z,74.85
2022-11-28T11:28:00.997Z,74.82
2022-11-28T11:30:32.227Z,74.93
2022-11-28T11:33:03.360Z,74.93
2022-11-28T11:35:36.217Z,74.68
2022-11-28T11:38:37.531Z,74.67
2022-11-28T11:41:30.462Z,75.28
2022-11-28T11:44:26.731Z,75.40
2022-11-28T11:47:02.978Z,75.63
2022-11-28T11:49:43.726Z,75.07
2022-11-28T11:52:15.058Z,74.83
2022-11-28T11:55:14.619Z,74.86
2022-11-28T11:57:48.654Z,75.09
2022-11-28T12:00:22.182Z,75.43
2022-11-28T12:03:34.874Z,75.74
2022-11-28T12:06:15.726Z,75.63
2022-11-28T12:08:53.122Z,75.37
2022-11-28T12:11:27.922Z,75.18
2022-11-28T12:13:58.927Z,75.76
2022-11-28T12:16:39.852Z,75.55
2022-11-28T12:19:35.407Z,75.29
2022-11-28T12:22:18.294Z,75.80
2022-11-28T12:25:10.688Z,74.73
2022-11-28T12:27:57.960Z,74.34
2022-11-28T12:30:53.762Z,73.63
2022-11-28T12:33:52.920Z,73.96
2022-11-28T12:36:36.073Z,73.84
2022-11-28T12:39:19.491Z,73.28
2022-11-28T12:42:28.430Z,73.30
2022-11-28T12:45:38.439Z,71.96
2022-11-28T12:49:02.077Z,72.32
2022-11-28T12:52:05.798Z,71.92
2022-11-28T12:55:01.762Z,72.52
2022-11-28T12:58:19.343Z,71.70
2022-11-28T13:01:16.621Z,72.73
2022-11-28T13:04:21.600Z,71.92
2022-11-28T13:07:59.548Z,72.67
2022-11-28T13:10:42.972Z,73.68
2022-11-28T13:13:20.437Z,74.14
2022-11-28T13:16:36.713Z,73.95
2022-11-28T13:19:39.514Z,74.67
2022-11-28T13:22:26.060Z,74.05
2022-11-28T13:25:20.662Z,73.15
2022-11-28T13:28:01.892Z,73.59
2022-11-28T13:30:56.493Z,74.00
2022-11-28T13:33:34.051Z,74.16
2022-11-28T13:36:03.278Z,74.31
2022-11-28T13:39:19.118Z,73.23
2022-11-28T13:42:36.508Z,72.65
2022-11-28T13:45:07.188Z,73.61
2022-11-28T13:47:38.396Z,73.54
2022-11-28T13:50:40.603Z,73.79
2022-11-28T13:53:10.502Z,73.24
2022-11-28T13:55:46.944Z,72.54
2022-11-28T13:58:22.923Z,72.72
2022-11-28T14:01:12.296Z,71.99
2022-11-28T14:04:08.334Z,73.40
2022-11-28T14:06:47.826Z,74.00
2022-11-28T14:09:52.288Z,73.97
2022-11-28T14:12:45.774Z,73.97
2022-11-28T14:15:17.126Z,73.41
2022-11-28T14:18:59.463Z,74.19
2022-11-28T14:22:08.942Z,74.13
2022-11-28T14:25:06.501Z,73.70
2022-11-28T14:27:38.311Z,73.17
2022-11-28T14:30:07.562Z,73.46
2022-11-28T14:32:42.805Z,72.58
2022-11-28T14:36:02.630Z,73.91
2022-11-28T14:38:33.688Z,74.15
2022-11-28T14:41:11.741Z,74.92
2022-11-28T14:43:46.294Z,74.85
2022-11-28T14:46:25.669Z,74.81
2022-11-28T14:48:59.537Z,74.61
2022-11-28T14:51:48.653Z,74.53
2022-11-28T14:54:37.086Z,75.21
2022-11-28T14:57:53.724Z,74.60
2022-11-28T15:00:47.353Z,74.75
2022-11-28T15:03:40.303Z,75.51
2022-11-28T15:06:35.830Z,75.55
2022-11-28T15:09:30.277Z,76.34
2022-11-28T15:12:24.322Z,76.31
2022-11-28T15:14:58.244Z,76.61
2022-11-28T15:17:34.094Z,76.56
2022-11-28T15:20:22.244Z,77.17
2022-11-28T15:22:50.768Z,76.51
2022-11-28T15:25:35.594Z,75.17
2022-11-28T15:28:19.228Z,75.16
2022-11-28T15:30:49.984Z,74.77
2022-11-28T15:33:18.513Z,74.64
2022-11-28T15:36:13.189Z,75.13
2022-11-28T15:38:44.242Z,75.30
2022-11-28T15:41:12.798Z,75.71
2022-11-28T15:43:46.607Z,75.81
2022-11-28T15:46:21.924Z,73.88
2022-11-28T15:48:53.058Z,73.61
2022-11-28T15:51:36.879Z,73.98
2022-11-28T15:54:27.418Z,74.15
2022-11-28T15:57:02.631Z,74.19
2022-11-28T15:59:31.454Z,74.00
2022-11-28T16:02:12.766Z,74.09
2022-11-28T16:04:41.845Z,74.35
2022-11-28T16:07:18.964Z,74.45
2022-11-28T16:10:22.166Z,75.72
2022-11-28T16:12:50.825Z,76.28
2022-11-28T16:15:21.765Z,75.33
2022-11-28T16:17:50.452Z,74.94
2022-11-28T16:20:35.940Z,74.72
2022-11-28T16:23:20.659Z,74.40
2022-11-28T16:26:25.761Z,76.06
2022-11-28T16:29:09.164Z,74.71
2022-11-28T16:31:37.565Z,74.92
2022-11-28T16:34:05.923Z,74.67
2022-11-28T16:36:39.074Z,74.30
2022-11-28T16:39:14.491Z,74.70
2022-11-28T16:42:20.555Z,75.58
2022-11-28T16:44:49.140Z,77.11
2022-11-28T16:47:33.186Z,77.56
2022-11-28T16:50:18.663Z,77.01
2022-11-28T16:52:59.053Z,74.96
2022-11-28T16:55:30.263Z,75.19
2022-11-28T16:58:15.950Z,75.95
2022-11-28T17:01:01.468Z,74.98
2022-11-28T17:03:47.571Z,75.49
2022-11-28T17:06:34.255Z,75.78
2022-11-28T17:09:03.391Z,76.03
2022-11-28T17:11:37.542Z,75.87
2022-11-28T17:14:13.128Z,75.33
2022-11-28T17:16:44.455Z,75.39
2022-11-28T17:19:13.335Z,75.03
2022-11-28T17:21:42.585Z,75.59
2022-11-28T17:24:35.214Z,75.53
2022-11-28T17:27:03.876Z,74.96
2022-11-28T17:29:32.320Z,75.50
2022-11-28T17:32:02.114Z,75.64
2022-11-28T17:34:37.498Z,75.73
2022-11-28T17:37:05.954Z,75.20
2022-11-28T17:40:36.681Z,74.89
2022-11-28T17:43:07.478Z,74.91
2022-11-28T17:45:36.927Z,74.90
2022-11-28T17:48:08.452Z,75.72
2022-11-28T17:50:37.408Z,75.29
2022-11-28T17:53:05.958Z,75.69
2022-11-28T17:55:34.549Z,75.26
2022-11-28T17:58:02.985Z,75.37
2022-11-28T18:00:32.996Z,75.73
2022-11-28T18:03:01.433Z,75.49
2022-11-28T18:05:29.841Z,75.74
2022-11-28T18:07:58.260Z,76.59
2022-11-28T18:10:35.174Z,76.58
2022-11-28T18:13:03.897Z,76.88
2022-11-28T18:15:35.603Z,77.14
2022-11-28T18:18:05.022Z,77.13
2022-11-28T18:20:33.677Z,76.83
2022-11-28T18:23:02.714Z,76.65
2022-11-28T18:25:31.114Z,75.99
2022-11-28T18:27:59.465Z,76.85
2022-11-28T18:30:30.828Z,77.46
2022-11-28T18:33:02.186Z,77.58
2022-11-28T18:35:30.690Z,78.02
2022-11-28T18:37:59.082Z,77.25
2022-11-28T18:40:28.511Z,77.26
2022-11-28T18:43:00.212Z,76.68
2022-11-28T18:45:28.883Z,76.09
2022-11-28T18:48:00.337Z,76.79
2022-11-28T18:50:28.548Z,77.83
2022-11-28T18:52:57.111Z,78.19
2022-11-28T18:55:25.597Z,78.21
2022-11-28T18:57:53.994Z,78.44
2022-11-28T19:00:23.216Z,78.07
2022-11-28T19:02:53.169Z,78.43
2022-11-28T19:05:21.555Z,79.08
2022-11-28T19:07:50.015Z,80.44
2022-11-28T19:10:18.728Z,79.85
2022-11-28T19:12:47.128Z,79.79
2022-11-28T19:15:15.865Z,79.94
2022-11-28T19:17:47.803Z,78.85
2022-11-28T19:20:16.319Z,80.03
2022-11-28T19:22:44.872Z,79.93
2022-11-28T19:25:13.314Z,79.95
2022-11-28T19:27:42.068Z,79.70
2022-11-28T19:30:10.766Z,80.00
2022-11-28T19:32:39.174Z,79.47
2022-11-28T19:35:08.102Z,80.17
2022-11-28T19:37:36.905Z,80.44
2022-11-28T19:40:05.712Z,80.32
2022-11-28T19:42:34.120Z,80.26
2022-11-28T19:45:02.564Z,80.01
2022-11-28T19:47:30.566Z,79.85
2022-11-28T19:50:01.330Z,79.47
2022-11-28T19:52:30.081Z,78.67
2022-11-28T19:55:00.934Z,79.03
2022-11-28T19:57:29.400Z,78.47
2022-11-28T20:00:01.138Z,78.29
2022-11-28T20:02:29.603Z,78.47
2022-11-28T20:04:58.263Z,78.18
2022-11-28T20:07:26.723Z,78.25
2022-11-28T20:09:55.183Z,78.30
2022-11-28T20:12:23.644Z,77.62
2022-11-28T20:14:51.653Z,79.34
2022-11-28T20:17:20.128Z,78.70
2022-11-28T20:19:49.166Z,77.98
2022-11-28T20:22:17.578Z,78.39
2022-11-28T20:24:45.994Z,78.41
2022-11-28T20:27:16.411Z,78.49
2022-11-28T20:29:45.085Z,78.33
2022-11-28T20:32:13.872Z,78.35
2022-11-28T20:34:42.525Z,78.83
2022-11-28T20:37:10.930Z,79.02
2022-11-28T20:39:39.652Z,78.64
2022-11-28T20:42:08.240Z,78.26
2022-11-28T20:44:36.658Z,79.09
2022-11-28T20:47:04.743Z,78.52
2022-11-28T20:49:33.195Z,78.79
2022-11-28T20:52:01.547Z,79.02
2022-11-28T20:54:30.201Z,78.63
2022-11-28T20:57:20.248Z,79.26
2022-11-28T20:59:47.251Z,78.94
2022-11-28T21:02:15.994Z,79.65
2022-11-28T21:04:44.518Z,79.25
2022-11-28T21:07:13.068Z,79.38
2022-11-28T21:09:41.814Z,79.16
2022-11-28T21:12:10.325Z,79.11
2022-11-28T21:14:38.757Z,78.70
2022-11-28T21:17:07.195Z,79.08
2022-11-28T21:19:37.648Z,79.51
2022-11-28T21:22:06.076Z,79.54
2022-11-28T21:24:35.170Z,79.80
2022-11-28T21:27:06.436Z,80.13
2022-11-28T21:29:34.887Z,79.29
2022-11-28T21:32:03.679Z,79.71
2022-11-28T21:34:33.872Z,79.38
2022-11-28T21:37:03.391Z,79.94
2022-11-28T21:39:31.760Z,79.86
2022-11-28T21:42:00.254Z,79.84
2022-11-28T21:44:28.720Z,79.63
2022-11-28T21:46:57.099Z,79.71
2022-11-28T21:49:25.503Z,80.22
2022-11-28T21:51:53.937Z,80.54
2022-11-28T21:54:22.540Z,80.33
2022-11-28T21:56:51.310Z,80.22
2022-11-28T21:59:21.751Z,79.87
2022-11-28T22:01:50.271Z,80.24
2022-11-28T22:04:21.919Z,80.33
2022-11-28T22:06:53.189Z,80.28
2022-11-28T22:09:21.600Z,80.09
2022-11-28T22:11:50.029Z,80.75
2022-11-28T22:14:18.383Z,80.99
2022-11-28T22:19:46.057Z,81.47
2022-11-28T22:22:14.558Z,81.32
2022-11-28T22:24:43.074Z,81.72
2022-11-28T22:27:11.503Z,81.65
2022-11-28T22:29:39.975Z,81.70
2022-11-28T22:32:08.212Z,81.34
2022-11-28T22:34:39.922Z,82.22
2022-11-28T22:37:08.225Z,81.94
2022-11-28T22:39:38.888Z,82.40
2022-11-28T22:42:07.756Z,82.81
2022-11-28T22:44:36.554Z,83.15
2022-11-28T22:47:05.502Z,83.75
2022-11-28T22:49:34.139Z,83.63
2022-11-28T22:52:02.770Z,84.86
2022-11-28T22:54:31.270Z,84.79
2022-11-28T22:57:00.060Z,84.74
2022-11-28T22:59:28.152Z,85.90
2022-11-28T23:01:56.713Z,85.30
2022-11-28T23:04:25.266Z,85.83
2022-11-28T23:06:53.844Z,85.78
2022-11-28T23:09:21.974Z,86.27
2022-11-28T23:11:50.358Z,86.84
2022-11-28T23:14:18.873Z,87.20
2022-11-28T23:16:47.400Z,87.19
2022-11-28T23:19:20.207Z,87.65
2022-11-28T23:21:50.611Z,87.73
2022-11-28T23:24:24.207Z,87.91
2022-11-28T23:26:53.310Z,88.36
2022-11-28T23:29:22.178Z,87.87
2022-11-28T23:31:50.865Z,87.86
2022-11-28T23:34:19.576Z,87.90
2022-11-28T23:36:48.365Z,88.50
2022-11-28T23:39:23.145Z,88.42
2022-11-28T23:41:52.495Z,88.28
2022-11-28T23:44:21.355Z,88.86
2022-11-28T23:46:49.941Z,88.74
2022-11-28T23:49:18.755Z,89.26
2022-11-28T23:51:47.325Z,89.15
2022-11-28T23:54:15.479Z,89.23
2022-11-28T23:56:44.192Z,89.85
2022-11-28T23:59:13.688Z,90.08
